Time;durP1;ratioP1;P1;durP2;ratioP2;P2;SDS_P1;SDS_P2;PMS_P1;PMS_P2;Temp;Humidity;BMP_temperature;BMP_pressure;BME280_temperature;BME280_humidity;BME280_pressure;Samples;Min_cycle;Max_cycle;Signal;HPM_P1;HPM_P2
2022/05/02 00:00:28;;;;;;;54.35;22.45;;;;;;;2.75;100.00;95622.81;5053764;28;20045;-77
2022/05/02 00:03:02;;;;;;;56.08;24.17;;;;;;;2.67;100.00;95623.09;5067595;28;20580;-77
2022/05/02 00:05:27;;;;;;;55.50;24.30;;;;;;;2.64;100.00;95618.34;5054144;28;20045;-77
2022/05/02 00:07:53;;;;;;;53.38;23.80;;;;;;;2.65;100.00;95609.56;5069528;28;20051;-77
2022/05/02 00:10:19;;;;;;;59.42;25.05;;;;;;;2.64;100.00;95618.34;5054973;28;20033;-77
2022/05/02 00:12:44;;;;;;;57.60;24.02;;;;;;;2.52;100.00;95619.06;5065148;28;20058;-76
2022/05/02 00:15:10;;;;;;;56.95;23.17;;;;;;;2.47;100.00;95618.91;5063562;28;20098;-77
2022/05/02 00:20:20;;;;;;;63.25;24.10;;;;;;;2.49;100.00;95616.91;5063651;28;20044;-77
2022/05/02 00:22:46;;;;;;;55.70;23.23;;;;;;;2.53;100.00;95612.84;5069198;28;20553;-77
2022/05/02 00:25:12;;;;;;;55.40;23.65;;;;;;;2.49;100.00;95619.50;5067452;28;20484;-78
2022/05/02 00:27:39;;;;;;;57.83;24.48;;;;;;;2.39;100.00;95608.81;5056489;28;20040;-77
2022/05/02 00:30:07;;;;;;;60.38;24.38;;;;;;;2.27;100.00;95607.91;5062462;28;20134;-79
2022/05/02 00:32:32;;;;;;;54.28;24.60;;;;;;;2.32;100.00;95603.66;5071681;28;20414;-77
2022/05/02 00:34:58;;;;;;;64.55;24.15;;;;;;;2.30;100.00;95604.88;5070467;28;20056;-78
2022/05/02 00:37:23;;;;;;;57.72;24.13;;;;;;;2.27;100.00;95600.13;5077692;28;20599;-77
2022/05/02 00:39:49;;;;;;;60.33;24.75;;;;;;;2.27;100.00;95597.53;5052912;28;20080;-77
2022/05/02 00:42:14;;;;;;;59.70;24.25;;;;;;;2.32;100.00;95597.69;5064909;28;20037;-78
2022/05/02 00:44:42;;;;;;;59.13;24.00;;;;;;;2.22;100.00;95591.16;5064634;28;20048;-78
2022/05/02 00:47:09;;;;;;;58.83;23.73;;;;;;;2.21;100.00;95594.78;5083241;28;20060;-78
2022/05/02 00:49:36;;;;;;;60.13;22.40;;;;;;;2.17;100.00;95604.00;5065729;28;20036;-78
2022/05/02 00:52:02;;;;;;;54.83;22.50;;;;;;;2.16;100.00;95592.03;5065539;28;20044;-78
2022/05/02 00:54:28;;;;;;;56.60;22.40;;;;;;;2.08;100.00;95595.69;5058891;28;20047;-78
2022/05/02 00:56:54;;;;;;;58.38;23.13;;;;;;;2.07;100.00;95588.13;5055026;28;20040;-78
2022/05/02 00:59:21;;;;;;;53.17;22.08;;;;;;;2.02;100.00;95590.56;5064026;28;20040;-78
2022/05/02 01:01:47;;;;;;;54.50;22.80;;;;;;;1.93;100.00;95587.44;5068809;28;20048;-78
2022/05/02 01:04:12;;;;;;;55.90;22.63;;;;;;;1.93;100.00;95591.84;5060566;28;20059;-76
2022/05/02 01:09:22;;;;;;;50.72;21.50;;;;;;;1.82;100.00;95573.34;5053500;28;20701;-77
2022/05/02 01:11:48;;;;;;;50.42;21.73;;;;;;;1.79;100.00;95585.97;5065721;28;20049;-76
2022/05/02 01:14:13;;;;;;;58.92;21.85;;;;;;;1.84;100.00;95573.94;5067743;28;20471;-76
2022/05/02 01:16:39;;;;;;;55.20;22.05;;;;;;;1.83;100.00;95577.53;5064631;28;20063;-76
2022/05/02 01:19:04;;;;;;;56.28;22.13;;;;;;;1.83;100.00;95576.75;5065125;28;20045;-76
2022/05/02 01:21:30;;;;;;;55.28;22.17;;;;;;;1.83;100.00;95567.16;5067211;28;20494;-76
2022/05/02 01:24:01;;;;;;;49.35;20.80;;;;;;;1.82;100.00;95560.38;5062079;28;20153;-76
2022/05/02 01:26:27;;;;;;;54.42;21.90;;;;;;;1.78;100.00;95564.41;5049312;28;20052;-77
2022/05/02 01:28:56;;;;;;;55.30;22.63;;;;;;;1.84;100.00;95568.75;5064403;28;20790;-76
2022/05/02 01:31:22;;;;;;;51.45;21.35;;;;;;;1.84;100.00;95563.56;5067984;28;20045;-77
2022/05/02 01:33:49;;;;;;;50.85;20.40;;;;;;;1.84;100.00;95563.56;5068086;28;20040;-77
2022/05/02 01:36:15;;;;;;;47.28;20.27;;;;;;;1.81;100.00;95564.00;5062860;28;20045;-76
2022/05/02 01:38:42;;;;;;;45.78;19.45;;;;;;;1.74;100.00;95560.66;5059873;28;20056;-77
2022/05/02 01:41:09;;;;;;;48.72;20.55;;;;;;;1.75;100.00;95559.63;5081493;28;20051;-77
2022/05/02 01:43:35;;;;;;;54.15;21.25;;;;;;;1.74;100.00;95552.88;5066929;28;20555;-77
2022/05/02 01:46:04;;;;;;;49.17;20.25;;;;;;;1.71;100.00;95551.50;5058579;28;20045;-77
2022/05/02 01:48:29;;;;;;;47.90;20.40;;;;;;;1.65;100.00;95548.94;5067567;28;20040;-77
2022/05/02 01:50:57;;;;;;;49.13;19.13;;;;;;;1.58;100.00;95548.19;5064383;28;20106;-79
2022/05/02 01:53:23;;;;;;;50.28;19.20;;;;;;;1.55;100.00;95555.41;5063498;28;20044;-77
2022/05/02 01:55:48;;;;;;;50.13;20.27;;;;;;;1.51;100.00;95549.03;5063592;28;20460;-77
2022/05/02 01:58:14;;;;;;;45.90;19.50;;;;;;;1.47;100.00;95552.28;5059727;28;20060;-77
2022/05/02 02:00:40;;;;;;;51.78;19.42;;;;;;;1.44;100.00;95548.31;5059032;28;20171;-77
2022/05/02 02:03:05;;;;;;;46.90;19.42;;;;;;;1.45;100.00;95549.91;5063624;28;20044;-77
2022/05/02 02:05:49;;;;;;;54.08;20.23;;;;;;;1.45;100.00;95547.31;5059299;28;20041;-77
2022/05/02 02:08:34;;;;;;;47.40;19.98;;;;;;;1.55;100.00;95539.84;5062528;28;20067;-77
2022/05/02 02:11:05;;;;;;;46.03;19.88;;;;;;;1.59;100.00;95554.97;5059367;28;20040;-77
2022/05/02 02:13:31;;;;;;;54.65;19.90;;;;;;;1.48;100.00;95544.28;5068401;28;20064;-77
2022/05/02 02:15:57;;;;;;;45.42;18.98;;;;;;;1.51;100.00;95554.22;5051888;28;20422;-77
2022/05/02 02:18:23;;;;;;;42.92;17.98;;;;;;;1.49;100.00;95540.66;5065397;28;20052;-77
2022/05/02 02:20:51;;;;;;;50.35;19.35;;;;;;;1.45;100.00;95542.13;5061957;28;20048;-76
2022/05/02 02:23:18;;;;;;;46.05;20.50;;;;;;;1.44;100.00;95537.94;5067932;28;20119;-76
2022/05/02 02:25:44;;;;;;;45.33;18.83;;;;;;;1.44;100.00;95543.13;5051311;28;20107;-77
2022/05/02 02:28:12;;;;;;;43.35;20.10;;;;;;;1.42;100.00;95539.91;5063514;28;20059;-78
2022/05/02 02:30:37;;;;;;;42.35;18.27;;;;;;;1.34;100.00;95545.38;5069372;28;20105;-78
2022/05/02 02:33:03;;;;;;;46.92;20.23;;;;;;;1.33;100.00;95546.38;5069998;28;20498;-78
2022/05/02 02:35:29;;;;;;;49.72;20.52;;;;;;;1.34;100.00;95537.59;5068404;28;20462;-78
2022/05/02 02:37:55;;;;;;;43.90;18.83;;;;;;;1.38;100.00;95538.78;5056800;28;20060;-78
2022/05/02 02:40:20;;;;;;;47.38;19.00;;;;;;;1.35;100.00;95554.72;5071434;28;20124;-78
2022/05/02 02:42:46;;;;;;;46.20;20.40;;;;;;;1.31;100.00;95548.41;5069717;28;20528;-78
2022/05/02 02:45:12;;;;;;;50.08;19.40;;;;;;;1.31;100.00;95538.03;5079927;28;20051;-78
2022/05/02 02:47:38;;;;;;;47.28;19.42;;;;;;;1.36;100.00;95545.94;5062651;28;20592;-77
2022/05/02 02:50:04;;;;;;;46.30;20.20;;;;;;;1.27;100.00;95547.22;5087379;28;20063;-78
2022/05/02 02:52:30;;;;;;;46.58;19.75;;;;;;;1.21;100.00;95539.28;5072869;28;20041;-78
2022/05/02 02:54:55;;;;;;;51.13;19.50;;;;;;;1.28;100.00;95548.78;5073516;28;20533;-77
2022/05/02 02:57:21;;;;;;;53.30;21.30;;;;;;;1.20;100.00;95542.84;5073048;28;20123;-78
2022/05/02 02:59:47;;;;;;;51.53;20.27;;;;;;;1.17;100.00;95542.50;5075517;28;20037;-78
2022/05/02 03:02:13;;;;;;;47.25;18.90;;;;;;;1.29;100.00;95534.84;5073662;28;20469;-78
2022/05/02 03:07:25;;;;;;;50.28;19.15;;;;;;;1.31;100.00;95532.84;5074742;28;20482;-78
2022/05/02 03:09:51;;;;;;;49.50;20.52;;;;;;;1.38;100.00;95546.56;5070821;28;20091;-78
2022/05/02 03:12:18;;;;;;;47.40;19.30;;;;;;;1.35;100.00;95545.16;5073320;28;20049;-77
2022/05/02 03:14:43;;;;;;;48.50;19.90;;;;;;;1.29;100.00;95540.03;5063155;28;20075;-77
2022/05/02 03:17:09;;;;;;;46.50;19.30;;;;;;;1.28;100.00;95541.81;5072341;28;20044;-78
2022/05/02 03:19:35;;;;;;;48.70;19.55;;;;;;;1.21;100.00;95544.44;5069423;28;20044;-78
2022/05/02 03:22:00;;;;;;;48.35;19.83;;;;;;;1.26;100.00;95540.44;5067347;28;20043;-77
2022/05/02 03:24:26;;;;;;;46.33;19.20;;;;;;;1.24;100.00;95547.66;5066184;28;20055;-77
2022/05/02 03:26:51;;;;;;;48.10;19.83;;;;;;;1.26;100.00;95540.44;5060434;28;20033;-77
2022/05/02 03:29:17;;;;;;;47.70;19.45;;;;;;;1.20;100.00;95540.25;5061725;28;20595;-77
2022/05/02 03:31:42;;;;;;;47.20;20.42;;;;;;;1.19;100.00;95530.91;5052845;28;20051;-77
2022/05/02 03:34:08;;;;;;;51.83;19.35;;;;;;;1.26;100.00;95530.06;5062496;28;20521;-77
2022/05/02 03:36:34;;;;;;;50.65;20.05;;;;;;;1.31;100.00;95527.66;5062273;28;20075;-77
2022/05/02 03:39:01;;;;;;;48.67;18.58;;;;;;;1.28;100.00;95528.06;5080415;28;20045;-77
2022/05/02 03:41:27;;;;;;;50.17;18.27;;;;;;;1.23;100.00;95530.50;5049609;28;20048;-77
2022/05/02 03:43:52;;;;;;;46.15;17.80;;;;;;;1.19;100.00;95525.72;5066177;28;20048;-77
2022/05/02 03:46:18;;;;;;;42.75;17.38;;;;;;;1.21;100.00;95528.91;5077735;28;20053;-77
2022/05/02 03:48:44;;;;;;;47.25;18.58;;;;;;;1.24;100.00;95526.91;5068572;28;20036;-77
2022/05/02 03:51:10;;;;;;;45.63;17.73;;;;;;;1.24;100.00;95526.91;5072220;28;20186;-77
2022/05/02 03:53:36;;;;;;;42.45;18.17;;;;;;;1.19;100.00;95536.09;5063496;28;20048;-77
2022/05/02 03:56:02;;;;;;;43.20;17.92;;;;;;;1.13;100.00;95525.75;5071970;28;20044;-77
2022/05/02 03:58:28;;;;;;;48.35;19.08;;;;;;;1.10;100.00;95526.19;5054669;28;20049;-77
2022/05/02 04:00:53;;;;;;;46.83;17.95;;;;;;;1.14;100.00;95522.19;5068137;28;20047;-77
2022/05/02 04:03:19;;;;;;;42.03;17.55;;;;;;;1.17;100.00;95522.53;5081330;28;20041;-77
2022/05/02 04:05:44;;;;;;;39.10;16.95;;;;;;;1.17;100.00;95527.72;5055602;28;20102;-77
2022/05/02 04:08:10;;;;;;;43.33;18.08;;;;;;;1.19;100.00;95525.72;5071803;28;20092;-77
2022/05/02 04:10:35;;;;;;;41.45;17.45;;;;;;;1.21;100.00;95523.72;5068875;28;20562;-78
2022/05/02 04:13:01;;;;;;;40.42;16.92;;;;;;;1.29;100.00;95524.47;5072515;28;20536;-78
2022/05/02 04:15:27;;;;;;;44.60;17.55;;;;;;;1.27;100.00;95529.06;5068794;28;20093;-77
2022/05/02 04:17:53;;;;;;;38.50;17.55;;;;;;;1.28;100.00;95533.22;5062766;28;20515;-77
2022/05/02 04:20:18;;;;;;;44.50;16.55;;;;;;;1.31;100.00;95528.44;5058087;28;20045;-77
2022/05/02 04:22:44;;;;;;;45.33;17.77;;;;;;;1.42;100.00;95532.13;5063957;28;20032;-77
2022/05/02 04:25:10;;;;;;;48.58;18.80;;;;;;;1.49;100.00;95530.28;5058336;28;20047;-77
2022/05/02 04:27:35;;;;;;;44.53;17.90;;;;;;;1.50;100.00;95526.69;5077768;28;20441;-77
2022/05/02 04:30:01;;;;;;;42.42;17.92;;;;;;;1.47;100.00;95532.31;5069753;28;20091;-77
2022/05/02 04:32:27;;;;;;;41.90;17.70;;;;;;;1.56;100.00;95531.03;5057856;28;20084;-77
2022/05/02 04:34:58;;;;;;;46.78;18.70;;;;;;;1.62;100.00;95531.22;5082339;28;20686;-77
2022/05/02 04:37:23;;;;;;;43.53;17.98;;;;;;;1.69;100.00;95534.53;5070881;28;20474;-78
2022/05/02 04:39:49;;;;;;;41.53;17.70;;;;;;;1.71;100.00;95537.69;5069993;28;20041;-78
2022/05/02 04:42:14;;;;;;;45.22;18.58;;;;;;;1.82;100.00;95537.00;5068007;28;20140;-78
2022/05/02 04:44:40;;;;;;;44.92;17.95;;;;;;;1.89;100.00;95534.38;5069052;28;20067;-77
2022/05/02 04:47:05;;;;;;;43.80;18.70;;;;;;;1.99;100.00;95536.47;5054550;28;20095;-77
2022/05/02 04:49:31;;;;;;;38.45;16.70;;;;;;;2.02;100.00;95533.44;5067890;28;20041;-77
2022/05/02 04:51:56;;;;;;;42.63;17.75;;;;;;;2.10;100.00;95529.78;5069820;28;20052;-78
2022/05/02 04:54:22;;;;;;;47.22;18.40;;;;;;;2.16;100.00;95526.34;5069872;28;20059;-77
2022/05/02 04:56:47;;;;;;;43.08;18.38;;;;;;;2.19;100.00;95529.28;5075346;28;20044;-78
2022/05/02 04:59:13;;;;;;;46.28;19.00;;;;;;;2.34;100.00;95523.75;5071317;28;20040;-77
2022/05/02 05:01:38;;;;;;;42.50;19.10;;;;;;;2.47;100.00;95525.41;5070576;28;20044;-78
2022/05/02 05:04:04;;;;;;;46.25;18.90;;;;;;;2.54;100.00;95518.34;5062402;28;20082;-78
2022/05/02 05:06:29;;;;;;;44.85;18.00;;;;;;;2.73;100.00;95518.28;5069144;28;20048;-77
2022/05/02 05:08:55;;;;;;;45.80;18.30;;;;;;;2.95;100.00;95522.00;5071029;28;20048;-78
2022/05/02 05:11:41;;;;;;;45.42;19.25;;;;;;;3.18;100.00;95515.28;5071649;28;20673;-78
2022/05/02 05:17:55;;;;;;;45.33;17.25;;;;;;;3.39;100.00;95510.59;5051418;28;20045;-77
2022/05/02 05:20:42;;;;;;;44.92;17.67;;;;;;;3.47;100.00;95507.66;5065560;28;20070;-78
2022/05/02 05:23:29;;;;;;;45.05;17.25;;;;;;;3.78;100.00;95503.19;5051861;28;20052;-77
2022/05/02 05:26:10;;;;;;;37.33;16.52;;;;;;;4.06;100.00;95497.25;5062341;28;20044;-78
2022/05/02 05:28:50;;;;;;;35.33;16.50;;;;;;;4.21;100.00;95496.81;5064823;28;20032;-77
2022/05/02 05:31:46;;;;;;;35.10;16.55;;;;;;;4.34;100.00;95501.75;5067829;28;20048;-77
2022/05/02 05:34:52;;;;;;;38.15;16.77;;;;;;;4.49;100.00;95493.44;5066362;28;20080;-77
2022/05/02 05:37:29;;;;;;;37.80;17.98;;;;;;;4.61;100.00;95495.25;5069279;28;20060;-78
2022/05/02 05:40:14;;;;;;;35.90;16.52;;;;;;;4.76;100.00;95499.97;5066152;28;20087;-78
2022/05/02 05:43:09;;;;;;;35.00;16.70;;;;;;;4.83;100.00;95498.00;5071079;28;20048;-77
2022/05/02 05:45:47;;;;;;;;;;;;;;;5.01;100.00;95503.03;5054115;28;20095;-78
2022/05/02 05:48:27;;;;;;;35.58;16.17;;;;;;;4.99;100.00;95499.84;5074076;28;20389;-78
2022/05/02 05:51:08;;;;;;;34.10;16.88;;;;;;;5.11;100.00;95499.00;5071051;28;20111;-78
2022/05/02 05:53:57;;;;;;;37.10;17.02;;;;;;;5.29;100.00;95501.41;5069802;28;20086;-78
2022/05/02 05:56:29;;;;;;;36.00;16.88;;;;;;;5.34;100.00;95501.50;5073600;28;20425;-78
2022/05/02 05:59:08;;;;;;;37.17;17.10;;;;;;;5.42;100.00;95504.75;5080808;28;20379;-78
2022/05/02 06:01:54;;;;;;;32.47;15.82;;;;;;;5.44;100.00;95505.31;5082292;28;20033;-78
2022/05/02 06:04:23;;;;;;;35.97;16.38;;;;;;;5.51;100.00;95503.34;5052818;28;20048;-78
2022/05/02 06:06:49;;;;;;;38.30;17.30;;;;;;;5.60;100.00;95507.13;5065744;28;20041;-78
2022/05/02 06:09:16;;;;;;;34.50;17.73;;;;;;;5.66;100.00;95495.75;5071403;28;20045;-78
2022/05/02 06:11:45;;;;;;;35.25;15.82;;;;;;;5.79;100.00;95499.03;5064678;28;20090;-78
2022/05/02 06:14:13;;;;;;;36.25;16.75;;;;;;;5.84;100.00;95496.53;5064297;28;20050;-78
2022/05/02 06:19:26;;;;;;;30.10;15.27;;;;;;;6.13;100.00;95505.03;5069399;28;20047;-77
2022/05/02 06:21:54;;;;;;;32.63;16.25;;;;;;;6.13;100.00;95504.25;5088066;28;20037;-78
2022/05/02 06:24:25;;;;;;;34.03;16.40;;;;;;;6.14;100.00;95495.41;5054053;28;20040;-75
2022/05/02 06:26:53;;;;;;;33.97;16.35;;;;;;;6.19;100.00;95498.88;5057561;28;20734;-76
2022/05/02 06:29:20;;;;;;;34.70;16.38;;;;;;;6.26;100.00;95501.28;5067469;28;20048;-78
2022/05/02 06:31:51;;;;;;;34.67;16.40;;;;;;;6.48;100.00;95505.75;5082392;28;20136;-77
2022/05/02 06:34:23;;;;;;;37.38;16.73;;;;;;;6.63;100.00;95498.09;5072303;28;20068;-77
2022/05/02 06:36:54;;;;;;;35.20;16.15;;;;;;;6.78;100.00;95499.28;5068613;28;20048;-77
2022/05/02 06:39:57;;;;;;;35.22;16.38;;;;;;;6.76;100.00;95497.69;5071678;28;20041;-77
2022/05/02 06:42:45;;;;;;;32.92;16.60;;;;;;;6.85;100.00;95494.66;5063857;28;20036;-77
2022/05/02 06:45:23;;;;;;;33.38;15.80;;;;;;;6.99;100.00;95495.84;5057577;28;20060;-77
2022/05/02 06:48:16;;;;;;;31.33;15.63;;;;;;;7.03;100.00;95496.94;5061329;28;20053;-77
2022/05/02 06:50:47;;;;;;;34.17;16.05;;;;;;;7.22;100.00;95501.84;5072211;28;20074;-77
2022/05/02 06:53:43;;;;;;;42.20;18.75;;;;;;;7.22;100.00;95486.91;5068085;28;20491;-77
2022/05/02 06:56:19;;;;;;;40.10;18.35;;;;;;;7.34;100.00;95494.63;5069835;28;20048;-77
2022/05/02 06:58:50;;;;;;;42.35;19.98;;;;;;;7.45;100.00;95493.66;5067066;28;20082;-77
2022/05/02 07:01:24;;;;;;;44.08;20.17;;;;;;;7.68;100.00;95496.97;5068857;28;20041;-77
2022/05/02 07:04:01;;;;;;;45.20;20.45;;;;;;;7.94;100.00;95494.53;5069914;28;20040;-77
2022/05/02 07:06:55;;;;;;;46.78;20.92;;;;;;;8.07;100.00;95494.09;5069717;28;20045;-77
2022/05/02 07:09:35;;;;;;;51.75;21.20;;;;;;;8.13;100.00;95487.84;5071624;28;20048;-78
2022/05/02 07:12:04;;;;;;;54.58;22.25;;;;;;;8.29;100.00;95485.31;5074239;28;20041;-77
2022/05/02 07:14:54;;;;;;;55.35;21.85;;;;;;;8.40;100.00;95484.28;5065623;28;20094;-76
2022/05/02 07:17:39;;;;;;;59.60;25.05;;;;;;;8.51;100.00;95482.53;5062836;28;20048;-77
2022/05/02 07:20:07;;;;;;;55.97;23.45;;;;;;;8.71;100.00;95487.06;5062198;28;20044;-76
2022/05/02 07:22:35;;;;;;;55.55;23.23;;;;;;;8.90;100.00;95478.75;5064926;28;20502;-77
2022/05/02 07:25:12;;;;;;;56.72;23.35;;;;;;;9.23;100.00;95481.94;5055678;28;20288;-77
2022/05/02 07:27:52;;;;;;;50.25;22.88;;;;;;;9.10;100.00;95484.03;5067170;28;20048;-78
2022/05/02 07:30:22;;;;;;;54.50;22.40;;;;;;;9.08;100.00;95480.88;5070493;28;20066;-73
2022/05/02 07:32:49;;;;;;;50.90;22.58;;;;;;;9.32;100.00;95490.88;5069031;28;20090;-74
2022/05/02 07:35:16;;;;;;;55.40;23.80;;;;;;;9.19;100.00;95487.72;5065545;28;20041;-74
2022/05/02 07:37:43;;;;;;;63.65;24.13;;;;;;;9.36;100.00;95486.69;5066955;28;20130;-73
2022/05/02 07:40:11;;;;;;;67.13;25.92;;;;;;;9.63;100.00;95486.41;5067088;28;20052;-78
2022/05/02 07:42:37;;;;;;;60.50;24.42;;;;;;;9.57;100.00;95476.97;5066940;28;20044;-76
2022/05/02 07:45:07;;;;;;;57.17;24.45;;;;;;;9.78;100.00;95483.00;5065392;28;20055;-76
2022/05/02 07:47:34;;;;;;;71.45;28.08;;;;;;;9.64;100.00;95472.25;5066689;28;20047;-74
2022/05/02 07:50:02;;;;;;;65.82;26.23;;;;;;;9.71;100.00;95471.97;5060742;28;20062;-74
2022/05/02 07:52:28;;;;;;;60.95;26.02;;;;;;;9.82;100.00;95467.50;5081021;28;20070;-74
2022/05/02 07:54:57;;;;;;;63.70;26.77;;;;;;;9.81;100.00;95466.72;5065543;28;20040;-75
2022/05/02 07:57:24;;;;;;;61.05;26.80;;;;;;;9.95;99.60;95466.16;5066152;28;21221;-74
2022/05/02 07:59:59;;;;;;;56.13;25.73;;;;;;;10.32;100.00;95459.75;5066159;28;20124;-74
2022/05/02 08:02:24;;;;;;;59.35;25.80;;;;;;;10.17;99.44;95464.00;5070186;28;20037;-76
2022/05/02 08:04:52;;;;;;;59.60;26.60;;;;;;;10.13;97.97;95462.97;5066614;28;20090;-74
2022/05/02 08:07:30;;;;;;;57.88;23.50;;;;;;;10.28;96.55;95466.59;5067686;28;20045;-75
2022/05/02 08:10:17;;;;;;;51.92;23.95;;;;;;;10.56;95.14;95460.75;5076449;28;20511;-75
2022/05/02 08:12:57;;;;;;;55.42;23.88;;;;;;;10.51;94.64;95460.75;5062261;28;20029;-75
2022/05/02 08:15:24;;;;;;;52.60;24.48;;;;;;;10.55;95.79;95459.16;5076282;28;20536;-74
2022/05/02 08:18:04;;;;;;;46.38;21.90;;;;;;;10.80;94.58;95467.22;5069841;28;20048;-75
2022/05/02 08:20:52;;;;;;;38.22;18.55;;;;;;;11.51;88.84;95468.59;5056539;28;20525;-74
2022/05/02 08:27:17;;;;;;;43.42;21.23;;;;;;;11.56;89.54;95465.91;5058433;28;20048;-76
2022/05/02 08:30:04;;;;;;;44.47;21.33;;;;;;;11.74;88.30;95461.03;5057641;28;20033;-74
2022/05/02 08:32:39;;;;;;;49.92;20.98;;;;;;;11.58;88.32;95458.53;5062912;28;20056;-76
2022/05/02 08:35:09;;;;;;;;;;;;;;;11.60;89.22;95466.94;5067094;28;20048;-76
2022/05/02 08:38:12;;;;;;;47.17;21.52;;;;;;;11.57;89.44;95462.22;5061316;28;19920;-74
2022/05/02 08:41:08;;;;;;;47.60;21.83;;;;;;;11.59;90.60;95457.47;5064106;28;20037;-75
2022/05/02 08:44:02;;;;;;;42.97;21.20;;;;;;;11.70;89.75;95465.28;5062926;28;20071;-74
2022/05/02 08:46:42;;;;;;;44.58;22.15;;;;;;;11.76;88.59;95453.63;5050284;28;20053;-75
2022/05/02 08:49:48;;;;;;;42.45;21.95;;;;;;;11.65;89.35;95454.78;5050254;28;20048;-75
2022/05/02 08:52:32;;;;;;;;;;;;;;;11.99;86.15;95462.66;5068179;28;20037;-75
2022/05/02 08:55:22;;;;;;;41.20;19.65;;;;;;;12.43;84.94;95461.66;5065558;28;19932;-75
2022/05/02 08:58:13;;;;;;;39.88;20.08;;;;;;;12.29;86.45;95461.56;5050659;28;20064;-75
2022/05/02 09:00:51;;;;;;;44.28;21.10;;;;;;;11.94;84.58;95452.94;5060139;28;20093;-75
2022/05/02 09:03:53;;;;;;;38.25;19.80;;;;;;;12.43;86.64;95455.63;5065553;28;20040;-75
2022/05/02 09:06:57;;;;;;;36.67;19.58;;;;;;;12.56;86.04;95454.91;5050854;28;20068;-75
2022/05/02 09:09:34;;;;;;;33.10;17.50;;;;;;;12.60;82.12;95461.22;5073114;28;20048;-75
2022/05/02 09:12:28;;;;;;;35.80;18.40;;;;;;;12.97;80.80;95454.41;5068080;28;20040;-75
2022/05/02 09:14:53;;;;;;;40.22;19.48;;;;;;;12.83;81.88;95458.81;5065093;28;20081;-75
2022/05/02 09:17:36;;;;;;;39.42;19.60;;;;;;;12.31;82.63;95453.34;5049143;28;20055;-75
2022/05/02 09:20:29;;;;;;;34.10;18.17;;;;;;;12.46;82.99;95455.03;5049207;28;20617;-74
2022/05/02 09:23:29;;;;;;;38.10;19.08;;;;;;;12.58;82.11;95458.03;5064134;28;20086;-75
2022/05/02 09:25:58;;;;;;;36.33;19.02;;;;;;;12.85;82.45;95455.88;5049266;28;20086;-75
2022/05/02 09:28:32;;;;;;;37.70;18.75;;;;;;;12.95;79.65;95461.81;5059720;28;20041;-75
2022/05/02 09:31:16;;;;;;;37.08;19.27;;;;;;;12.71;80.96;95455.78;5058089;28;20041;-75
2022/05/02 09:34:10;;;;;;;38.25;19.88;;;;;;;12.77;81.27;95449.38;5065337;28;20098;-75
2022/05/02 09:37:06;;;;;;;32.33;17.70;;;;;;;13.10;79.96;95452.09;5066464;28;20567;-75
2022/05/02 09:39:52;;;;;;;35.97;17.42;;;;;;;12.98;80.30;95455.94;5059405;28;20044;-75
2022/05/02 09:42:52;;;;;;;33.38;18.17;;;;;;;13.14;79.69;95453.09;5072749;28;20570;-75
2022/05/02 09:49:36;;;;;;;30.38;16.83;;;;;;;13.36;76.98;95446.47;5050557;28;20048;-75
2022/05/02 09:52:04;;;;;;;30.08;16.20;;;;;;;13.77;75.82;95445.81;5049055;28;20706;-75
2022/05/02 09:57:39;;;;;;;32.35;18.13;;;;;;;13.45;75.42;95447.38;5057576;28;20130;-75
2022/05/02 10:03:08;;;;;;;28.25;16.05;;;;;;;13.90;76.40;95442.38;5071714;28;20037;-75
2022/05/02 10:05:45;;;;;;;32.35;16.92;;;;;;;14.12;74.42;95443.59;5065543;28;20043;-75
2022/05/02 10:08:52;;;;;;;28.27;16.08;;;;;;;14.52;72.53;95441.25;5073746;28;20093;-74
2022/05/02 10:11:34;;;;;;;30.27;17.13;;;;;;;14.32;72.64;95437.13;5062741;28;20044;-75
2022/05/02 10:14:33;;;;;;;29.38;17.08;;;;;;;13.67;72.12;95439.59;5065087;28;20033;-75
2022/05/02 10:17:13;;;;;;;29.50;16.25;;;;;;;13.60;75.60;95433.91;5058307;28;20132;-74
2022/05/02 10:20:13;;;;;;;30.42;17.13;;;;;;;13.81;75.50;95433.56;5052820;28;20453;-75
2022/05/02 10:22:50;;;;;;;25.42;15.70;;;;;;;14.60;73.49;95432.59;5068646;28;20041;-74
2022/05/02 10:25:32;;;;;;;21.17;12.10;;;;;;;15.04;66.88;95427.72;5063398;28;20037;-73
2022/05/02 10:28:08;;;;;;;20.33;11.85;;;;;;;14.90;68.67;95425.13;5061197;28;20490;-74
2022/05/02 10:31:04;;;;;;;24.45;15.13;;;;;;;13.99;72.51;95429.28;5076362;28;20044;-74
2022/05/02 10:33:44;;;;;;;25.17;14.73;;;;;;;14.10;72.65;95424.59;5084440;28;20532;-74
2022/05/02 10:36:12;;;;;;;32.05;16.25;;;;;;;14.24;73.14;95425.38;5059418;28;20498;-73
2022/05/02 10:38:50;;;;;;;31.15;17.73;;;;;;;14.44;73.25;95428.69;5063876;28;20108;-73
2022/05/02 10:41:20;;;;;;;32.80;18.55;;;;;;;14.25;73.35;95421.66;5052570;28;20486;-74
2022/05/02 10:43:53;;;;;;;29.35;17.20;;;;;;;14.84;72.26;95421.00;5067189;28;20094;-74
2022/05/02 10:46:21;;;;;;;35.63;19.95;;;;;;;14.19;73.78;95417.53;5065098;28;20070;-73
2022/05/02 10:49:05;;;;;;;33.50;20.88;;;;;;;14.69;72.17;95417.59;5052453;28;20041;-74
2022/05/02 10:51:55;;;;;;;33.88;19.58;;;;;;;15.26;69.38;95421.66;5059243;28;20032;-74
2022/05/02 10:54:45;;;;;;;36.83;21.08;;;;;;;15.53;67.67;95404.03;5067445;28;20052;-74
2022/05/02 10:57:24;;;;;;;35.88;20.88;;;;;;;15.23;70.29;95406.38;5065018;28;20055;-76
2022/05/02 10:59:54;;;;;;;29.58;18.67;;;;;;;16.11;67.14;95408.41;5061727;28;20094;-74
2022/05/02 11:02:20;;;;;;;31.70;18.40;;;;;;;15.47;67.74;95410.56;5065909;28;20041;-74
2022/05/02 11:04:56;;;;;;;33.35;18.80;;;;;;;15.48;67.12;95398.88;5079665;28;20045;-74
2022/05/02 11:07:35;;;;;;;27.65;17.30;;;;;;;15.76;67.59;95407.47;5060314;28;20040;-76
2022/05/02 11:10:07;;;;;;;25.30;15.30;;;;;;;15.37;65.61;95407.09;5063618;28;20654;-74
2022/05/02 11:12:41;;;;;;;31.90;16.50;;;;;;;15.25;67.90;95404.19;5071121;28;20044;-73
2022/05/02 11:15:24;;;;;;;31.40;19.73;;;;;;;15.18;68.70;95398.53;5057392;28;20111;-74
2022/05/02 11:17:50;;;;;;;28.80;17.87;;;;;;;15.35;68.48;95401.28;5069128;28;20422;-73
2022/05/02 11:20:43;;;;;;;30.23;17.42;;;;;;;14.62;69.08;95393.38;5062446;28;20282;-74
2022/05/02 11:23:33;;;;;;;25.40;15.52;;;;;;;14.86;67.41;95397.66;5071771;28;20413;-75
2022/05/02 11:26:22;;;;;;;25.25;15.82;;;;;;;14.94;68.43;95396.94;5054703;28;20045;-74
2022/05/02 11:29:19;;;;;;;24.75;16.65;;;;;;;14.41;67.87;95392.22;5065958;28;20033;-74
2022/05/02 11:31:56;;;;;;;25.60;14.90;;;;;;;15.39;69.31;95396.19;5061718;28;20430;-74
2022/05/02 11:34:43;;;;;;;28.23;16.33;;;;;;;16.37;63.86;95389.13;5082937;28;20051;-74
2022/05/02 11:37:21;;;;;;;25.88;15.18;;;;;;;16.24;63.67;95384.72;5051760;28;20059;-74
2022/05/02 11:40:00;;;;;;;27.40;15.95;;;;;;;15.84;65.78;95377.56;5062030;28;20048;-74
2022/05/02 11:42:28;;;;;;;25.10;15.23;;;;;;;15.11;68.62;95376.97;5054947;28;20063;-75
2022/05/02 11:45:10;;;;;;;30.55;16.52;;;;;;;15.42;66.70;95383.09;5054110;28;20033;-74
2022/05/02 11:48:00;;;;;;;28.25;16.25;;;;;;;15.49;67.89;95376.59;5069598;28;20036;-74
2022/05/02 11:50:27;;;;;;;24.55;14.32;;;;;;;15.93;66.37;95366.97;5068835;28;20048;-74
2022/05/02 11:52:59;;;;;;;26.77;16.45;;;;;;;15.30;66.14;95371.47;5064671;28;20037;-74
2022/05/02 11:55:33;;;;;;;25.23;15.38;;;;;;;15.25;67.19;95372.38;5058414;28;20041;-75
2022/05/02 11:58:08;;;;;;;23.13;15.27;;;;;;;16.00;66.68;95369.97;5058829;28;20052;-75
2022/05/02 12:00:36;;;;;;;26.58;15.10;;;;;;;16.59;62.70;95360.88;5059222;28;20036;-75
2022/05/02 12:03:14;;;;;;;28.45;15.25;;;;;;;17.22;61.54;95353.38;5064353;28;20417;-74
2022/05/02 12:05:42;;;;;;;24.58;15.40;;;;;;;16.67;62.65;95357.47;5053685;28;20037;-73
2022/05/02 12:08:24;;;;;;;26.77;16.40;;;;;;;15.48;65.08;95354.56;5061451;28;20045;-74
2022/05/02 12:11:04;;;;;;;25.00;15.80;;;;;;;15.51;65.11;95347.88;5070360;28;20049;-74
2022/05/02 12:13:37;;;;;;;22.50;14.27;;;;;;;15.80;64.11;95346.63;5056086;28;20036;-74